Cheticamp, Canada
Current Conditions -  °F | °C
As of 10:00 AM on Tuesday 27 Jan 2015 (Local Time) from CYQY Reporting Station
Moderate Snow Moderate Snow  
Wind Chill:   Ceiling: 600
Heat Index: 23°   Visibility: 0.37mi
Dew Point: 21°   Wind: 26mph
Humidity: 93%   Direction: 70°ENE
Pressure: 30.07"   Gusts: 41mph
Location:  46.63°N, 61.01°W
Report Text: CYQY 271400Z 07023G36KT 3/8SM R07/2600FT/N SN BLSN DRSN OVC006 M05/M06 A3007 RMK SN4ST4 /S02/ PRESFR SLP186
Loading
Personal Weather Stations






























Interactive Weather Map New forecast layout! Learn more

10-Day Weather Forecast

Advertisements
Track Severe Weather on mobile